<?xml version="1.0" encoding="UTF-8" standalone="no" ?>
<gpx xmlns="http://www.topografix.com/GPX/1/1" xmlns:xsi="http://www.w3.org/2001/XMLSchema-instance" xsi:schemaLocation="http://www.topografix.com/GPX/1/1 http://www.topografix.com/GPX/1/1/gpx.xsd" version="1.1" creator="VisuGPX - https://www.visugpx.com">
  <metadata>
    <name>Taurignan Gajan Chaumarti Sainte Croix Cap d'Aoubi 2h27 2,9 km/h</name>
  </metadata>
  <trk>
    <name><![CDATA[Taurignan Gajan Chaumarti Sainte Croix Cap d'Aoubi 2h27 2,9 km/h]]></name>
    <trkseg>
      <trkpt lat="43.02669" lon="1.11367">
        <ele>530</ele>
        <time>2022-02-27T14:35:10+01:00</time>
      </trkpt>
      <trkpt lat="43.02675" lon="1.11343">
        <ele>425</ele>
        <time>2022-02-27T14:35:56+01:00</time>
      </trkpt>
      <trkpt lat="43.02683" lon="1.11367">
        <ele>458</ele>
        <time>2022-02-27T14:36:22+01:00</time>
      </trkpt>
      <trkpt lat="43.02691" lon="1.11345">
        <ele>413</ele>
        <time>2022-02-27T14:37:40+01:00</time>
      </trkpt>
      <trkpt lat="43.02707" lon="1.11332">
        <ele>422</ele>
        <time>2022-02-27T14:38:02+01:00</time>
      </trkpt>
      <trkpt lat="43.02723" lon="1.1132">
        <ele>431</ele>
        <time>2022-02-27T14:38:20+01:00</time>
      </trkpt>
      <trkpt lat="43.02742" lon="1.11325">
        <ele>431</ele>
        <time>2022-02-27T14:38:37+01:00</time>
      </trkpt>
      <trkpt lat="43.02758" lon="1.11337">
        <ele>433</ele>
        <time>2022-02-27T14:38:56+01:00</time>
      </trkpt>
      <trkpt lat="43.02772" lon="1.11351">
        <ele>426</ele>
        <time>2022-02-27T14:39:14+01:00</time>
      </trkpt>
      <trkpt lat="43.02788" lon="1.11367">
        <ele>431</ele>
        <time>2022-02-27T14:39:32+01:00</time>
      </trkpt>
      <trkpt lat="43.02803" lon="1.11383">
        <ele>435</ele>
        <time>2022-02-27T14:39:46+01:00</time>
      </trkpt>
      <trkpt lat="43.02816" lon="1.114">
        <ele>436</ele>
        <time>2022-02-27T14:40:04+01:00</time>
      </trkpt>
      <trkpt lat="43.0283" lon="1.11415">
        <ele>429</ele>
        <time>2022-02-27T14:40:23+01:00</time>
      </trkpt>
      <trkpt lat="43.02836" lon="1.11439">
        <ele>435</ele>
        <time>2022-02-27T14:40:42+01:00</time>
      </trkpt>
      <trkpt lat="43.0285" lon="1.11455">
        <ele>435</ele>
        <time>2022-02-27T14:41:06+01:00</time>
      </trkpt>
      <trkpt lat="43.02865" lon="1.11469">
        <ele>439</ele>
        <time>2022-02-27T14:41:22+01:00</time>
      </trkpt>
      <trkpt lat="43.02883" lon="1.11464">
        <ele>428</ele>
        <time>2022-02-27T14:41:53+01:00</time>
      </trkpt>
      <trkpt lat="43.02899" lon="1.11452">
        <ele>424</ele>
        <time>2022-02-27T14:42:15+01:00</time>
      </trkpt>
      <trkpt lat="43.02916" lon="1.1144">
        <ele>436</ele>
        <time>2022-02-27T14:42:33+01:00</time>
      </trkpt>
      <trkpt lat="43.02933" lon="1.11431">
        <ele>445</ele>
        <time>2022-02-27T14:42:51+01:00</time>
      </trkpt>
      <trkpt lat="43.02952" lon="1.11432">
        <ele>448</ele>
        <time>2022-02-27T14:43:05+01:00</time>
      </trkpt>
      <trkpt lat="43.0297" lon="1.11438">
        <ele>450</ele>
        <time>2022-02-27T14:43:19+01:00</time>
      </trkpt>
      <trkpt lat="43.02987" lon="1.1145">
        <ele>446</ele>
        <time>2022-02-27T14:43:43+01:00</time>
      </trkpt>
      <trkpt lat="43.03003" lon="1.11461">
        <ele>465</ele>
        <time>2022-02-27T14:44:01+01:00</time>
      </trkpt>
      <trkpt lat="43.03017" lon="1.11486">
        <ele>465</ele>
        <time>2022-02-27T14:45:13+01:00</time>
      </trkpt>
      <trkpt lat="43.03036" lon="1.11494">
        <ele>473</ele>
        <time>2022-02-27T14:45:16+01:00</time>
      </trkpt>
      <trkpt lat="43.03055" lon="1.11495">
        <ele>464</ele>
        <time>2022-02-27T14:45:48+01:00</time>
      </trkpt>
      <trkpt lat="43.03073" lon="1.11495">
        <ele>467</ele>
        <time>2022-02-27T14:46:18+01:00</time>
      </trkpt>
      <trkpt lat="43.03092" lon="1.11493">
        <ele>469</ele>
        <time>2022-02-27T14:46:42+01:00</time>
      </trkpt>
      <trkpt lat="43.03107" lon="1.11478">
        <ele>472</ele>
        <time>2022-02-27T14:47:06+01:00</time>
      </trkpt>
      <trkpt lat="43.03121" lon="1.11461">
        <ele>473</ele>
        <time>2022-02-27T14:47:29+01:00</time>
      </trkpt>
      <trkpt lat="43.03132" lon="1.11441">
        <ele>475</ele>
        <time>2022-02-27T14:47:50+01:00</time>
      </trkpt>
      <trkpt lat="43.03146" lon="1.11425">
        <ele>477</ele>
        <time>2022-02-27T14:48:14+01:00</time>
      </trkpt>
      <trkpt lat="43.03163" lon="1.11415">
        <ele>478</ele>
        <time>2022-02-27T14:48:38+01:00</time>
      </trkpt>
      <trkpt lat="43.03181" lon="1.11407">
        <ele>477</ele>
        <time>2022-02-27T14:49:02+01:00</time>
      </trkpt>
      <trkpt lat="43.03198" lon="1.11397">
        <ele>477</ele>
        <time>2022-02-27T14:49:19+01:00</time>
      </trkpt>
      <trkpt lat="43.03211" lon="1.1138">
        <ele>481</ele>
        <time>2022-02-27T14:49:41+01:00</time>
      </trkpt>
      <trkpt lat="43.03221" lon="1.11359">
        <ele>449</ele>
        <time>2022-02-27T14:50:06+01:00</time>
      </trkpt>
      <trkpt lat="43.03233" lon="1.1134">
        <ele>468</ele>
        <time>2022-02-27T14:50:30+01:00</time>
      </trkpt>
      <trkpt lat="43.03247" lon="1.11324">
        <ele>473</ele>
        <time>2022-02-27T14:50:50+01:00</time>
      </trkpt>
      <trkpt lat="43.03262" lon="1.11311">
        <ele>451</ele>
        <time>2022-02-27T14:51:11+01:00</time>
      </trkpt>
      <trkpt lat="43.03275" lon="1.11294">
        <ele>456</ele>
        <time>2022-02-27T14:51:34+01:00</time>
      </trkpt>
      <trkpt lat="43.03286" lon="1.11273">
        <ele>459</ele>
        <time>2022-02-27T14:51:57+01:00</time>
      </trkpt>
      <trkpt lat="43.03292" lon="1.11249">
        <ele>460</ele>
        <time>2022-02-27T14:52:20+01:00</time>
      </trkpt>
      <trkpt lat="43.03302" lon="1.11228">
        <ele>494</ele>
        <time>2022-02-27T14:52:47+01:00</time>
      </trkpt>
      <trkpt lat="43.03313" lon="1.11208">
        <ele>459</ele>
        <time>2022-02-27T14:53:08+01:00</time>
      </trkpt>
      <trkpt lat="43.03332" lon="1.11202">
        <ele>458</ele>
        <time>2022-02-27T14:53:30+01:00</time>
      </trkpt>
      <trkpt lat="43.0335" lon="1.11206">
        <ele>459</ele>
        <time>2022-02-27T14:53:51+01:00</time>
      </trkpt>
      <trkpt lat="43.03368" lon="1.1121">
        <ele>457</ele>
        <time>2022-02-27T14:54:12+01:00</time>
      </trkpt>
      <trkpt lat="43.03387" lon="1.11215">
        <ele>500</ele>
        <time>2022-02-27T14:54:34+01:00</time>
      </trkpt>
      <trkpt lat="43.03404" lon="1.11224">
        <ele>463</ele>
        <time>2022-02-27T14:54:55+01:00</time>
      </trkpt>
      <trkpt lat="43.03387" lon="1.11235">
        <ele>468</ele>
        <time>2022-02-27T14:55:17+01:00</time>
      </trkpt>
      <trkpt lat="43.03369" lon="1.11239">
        <ele>492</ele>
        <time>2022-02-27T14:55:34+01:00</time>
      </trkpt>
      <trkpt lat="43.03351" lon="1.11245">
        <ele>498</ele>
        <time>2022-02-27T14:55:55+01:00</time>
      </trkpt>
      <trkpt lat="43.03369" lon="1.11251">
        <ele>466</ele>
        <time>2022-02-27T14:56:19+01:00</time>
      </trkpt>
      <trkpt lat="43.03388" lon="1.11253">
        <ele>466</ele>
        <time>2022-02-27T14:56:38+01:00</time>
      </trkpt>
      <trkpt lat="43.03406" lon="1.11262">
        <ele>464</ele>
        <time>2022-02-27T14:56:56+01:00</time>
      </trkpt>
      <trkpt lat="43.03422" lon="1.11276">
        <ele>473</ele>
        <time>2022-02-27T14:57:17+01:00</time>
      </trkpt>
      <trkpt lat="43.0343" lon="1.11298">
        <ele>473</ele>
        <time>2022-02-27T14:57:37+01:00</time>
      </trkpt>
      <trkpt lat="43.03429" lon="1.11323">
        <ele>477</ele>
        <time>2022-02-27T14:57:57+01:00</time>
      </trkpt>
      <trkpt lat="43.03429" lon="1.11349">
        <ele>476</ele>
        <time>2022-02-27T14:58:17+01:00</time>
      </trkpt>
      <trkpt lat="43.03447" lon="1.11354">
        <ele>477</ele>
        <time>2022-02-27T14:58:40+01:00</time>
      </trkpt>
      <trkpt lat="43.03458" lon="1.11333">
        <ele>479</ele>
        <time>2022-02-27T14:59:01+01:00</time>
      </trkpt>
      <trkpt lat="43.03471" lon="1.11315">
        <ele>484</ele>
        <time>2022-02-27T14:59:18+01:00</time>
      </trkpt>
      <trkpt lat="43.03484" lon="1.11297">
        <ele>483</ele>
        <time>2022-02-27T14:59:40+01:00</time>
      </trkpt>
      <trkpt lat="43.03491" lon="1.11274">
        <ele>486</ele>
        <time>2022-02-27T14:59:59+01:00</time>
      </trkpt>
      <trkpt lat="43.03505" lon="1.11259">
        <ele>524</ele>
        <time>2022-02-27T15:00:19+01:00</time>
      </trkpt>
      <trkpt lat="43.03524" lon="1.11255">
        <ele>523</ele>
        <time>2022-02-27T15:00:39+01:00</time>
      </trkpt>
      <trkpt lat="43.03538" lon="1.11238">
        <ele>527</ele>
        <time>2022-02-27T15:00:59+01:00</time>
      </trkpt>
      <trkpt lat="43.03541" lon="1.11213">
        <ele>528</ele>
        <time>2022-02-27T15:01:24+01:00</time>
      </trkpt>
      <trkpt lat="43.03556" lon="1.11228">
        <ele>527</ele>
        <time>2022-02-27T15:02:00+01:00</time>
      </trkpt>
      <trkpt lat="43.03563" lon="1.11251">
        <ele>525</ele>
        <time>2022-02-27T15:02:21+01:00</time>
      </trkpt>
      <trkpt lat="43.03572" lon="1.11273">
        <ele>526</ele>
        <time>2022-02-27T15:02:40+01:00</time>
      </trkpt>
      <trkpt lat="43.03575" lon="1.11299">
        <ele>520</ele>
        <time>2022-02-27T15:02:59+01:00</time>
      </trkpt>
      <trkpt lat="43.03558" lon="1.1131">
        <ele>525</ele>
        <time>2022-02-27T15:03:18+01:00</time>
      </trkpt>
      <trkpt lat="43.03552" lon="1.11333">
        <ele>531</ele>
        <time>2022-02-27T15:03:39+01:00</time>
      </trkpt>
      <trkpt lat="43.03548" lon="1.11357">
        <ele>534</ele>
        <time>2022-02-27T15:04:02+01:00</time>
      </trkpt>
      <trkpt lat="43.03543" lon="1.11382">
        <ele>537</ele>
        <time>2022-02-27T15:04:23+01:00</time>
      </trkpt>
      <trkpt lat="43.03537" lon="1.11405">
        <ele>538</ele>
        <time>2022-02-27T15:04:45+01:00</time>
      </trkpt>
      <trkpt lat="43.03531" lon="1.11428">
        <ele>539</ele>
        <time>2022-02-27T15:05:07+01:00</time>
      </trkpt>
      <trkpt lat="43.03524" lon="1.11451">
        <ele>516</ele>
        <time>2022-02-27T15:05:28+01:00</time>
      </trkpt>
      <trkpt lat="43.03517" lon="1.11475">
        <ele>515</ele>
        <time>2022-02-27T15:05:51+01:00</time>
      </trkpt>
      <trkpt lat="43.03511" lon="1.11498">
        <ele>504</ele>
        <time>2022-02-27T15:06:21+01:00</time>
      </trkpt>
      <trkpt lat="43.03505" lon="1.11522">
        <ele>503</ele>
        <time>2022-02-27T15:06:38+01:00</time>
      </trkpt>
      <trkpt lat="43.03498" lon="1.11545">
        <ele>510</ele>
        <time>2022-02-27T15:07:02+01:00</time>
      </trkpt>
      <trkpt lat="43.03488" lon="1.11567">
        <ele>512</ele>
        <time>2022-02-27T15:07:28+01:00</time>
      </trkpt>
      <trkpt lat="43.03471" lon="1.11579">
        <ele>508</ele>
        <time>2022-02-27T15:07:48+01:00</time>
      </trkpt>
      <trkpt lat="43.03456" lon="1.11593">
        <ele>504</ele>
        <time>2022-02-27T15:08:10+01:00</time>
      </trkpt>
      <trkpt lat="43.03442" lon="1.11611">
        <ele>511</ele>
        <time>2022-02-27T15:08:28+01:00</time>
      </trkpt>
      <trkpt lat="43.03431" lon="1.1163">
        <ele>515</ele>
        <time>2022-02-27T15:08:45+01:00</time>
      </trkpt>
      <trkpt lat="43.0344" lon="1.11652">
        <ele>545</ele>
        <time>2022-02-27T15:09:04+01:00</time>
      </trkpt>
      <trkpt lat="43.0343" lon="1.11674">
        <ele>548</ele>
        <time>2022-02-27T15:09:27+01:00</time>
      </trkpt>
      <trkpt lat="43.03425" lon="1.11698">
        <ele>548</ele>
        <time>2022-02-27T15:09:47+01:00</time>
      </trkpt>
      <trkpt lat="43.0342" lon="1.11723">
        <ele>544</ele>
        <time>2022-02-27T15:10:11+01:00</time>
      </trkpt>
      <trkpt lat="43.03414" lon="1.11747">
        <ele>543</ele>
        <time>2022-02-27T15:10:31+01:00</time>
      </trkpt>
      <trkpt lat="43.03408" lon="1.11771">
        <ele>541</ele>
        <time>2022-02-27T15:10:49+01:00</time>
      </trkpt>
      <trkpt lat="43.03404" lon="1.11796">
        <ele>541</ele>
        <time>2022-02-27T15:11:11+01:00</time>
      </trkpt>
      <trkpt lat="43.03389" lon="1.11812">
        <ele>540</ele>
        <time>2022-02-27T15:11:31+01:00</time>
      </trkpt>
      <trkpt lat="43.03373" lon="1.11822">
        <ele>518</ele>
        <time>2022-02-27T15:11:51+01:00</time>
      </trkpt>
      <trkpt lat="43.03366" lon="1.11846">
        <ele>517</ele>
        <time>2022-02-27T15:12:11+01:00</time>
      </trkpt>
      <trkpt lat="43.03359" lon="1.11869">
        <ele>504</ele>
        <time>2022-02-27T15:12:33+01:00</time>
      </trkpt>
      <trkpt lat="43.03352" lon="1.11893">
        <ele>513</ele>
        <time>2022-02-27T15:12:52+01:00</time>
      </trkpt>
      <trkpt lat="43.0334" lon="1.11912">
        <ele>537</ele>
        <time>2022-02-27T15:13:11+01:00</time>
      </trkpt>
      <trkpt lat="43.03327" lon="1.11929">
        <ele>543</ele>
        <time>2022-02-27T15:13:25+01:00</time>
      </trkpt>
      <trkpt lat="43.03314" lon="1.11946">
        <ele>544</ele>
        <time>2022-02-27T15:13:48+01:00</time>
      </trkpt>
      <trkpt lat="43.03296" lon="1.11942">
        <ele>539</ele>
        <time>2022-02-27T15:14:06+01:00</time>
      </trkpt>
      <trkpt lat="43.03278" lon="1.11937">
        <ele>547</ele>
        <time>2022-02-27T15:14:24+01:00</time>
      </trkpt>
      <trkpt lat="43.0326" lon="1.11943">
        <ele>546</ele>
        <time>2022-02-27T15:14:45+01:00</time>
      </trkpt>
      <trkpt lat="43.03249" lon="1.11963">
        <ele>545</ele>
        <time>2022-02-27T15:15:06+01:00</time>
      </trkpt>
      <trkpt lat="43.03243" lon="1.11987">
        <ele>513</ele>
        <time>2022-02-27T15:15:28+01:00</time>
      </trkpt>
      <trkpt lat="43.03228" lon="1.12">
        <ele>512</ele>
        <time>2022-02-27T15:15:53+01:00</time>
      </trkpt>
      <trkpt lat="43.03215" lon="1.12019">
        <ele>505</ele>
        <time>2022-02-27T15:16:15+01:00</time>
      </trkpt>
      <trkpt lat="43.03207" lon="1.12042">
        <ele>508</ele>
        <time>2022-02-27T15:16:36+01:00</time>
      </trkpt>
      <trkpt lat="43.03195" lon="1.12061">
        <ele>555</ele>
        <time>2022-02-27T15:16:58+01:00</time>
      </trkpt>
      <trkpt lat="43.03181" lon="1.12078">
        <ele>555</ele>
        <time>2022-02-27T15:17:28+01:00</time>
      </trkpt>
      <trkpt lat="43.03167" lon="1.12094">
        <ele>557</ele>
        <time>2022-02-27T15:17:55+01:00</time>
      </trkpt>
      <trkpt lat="43.03157" lon="1.12115">
        <ele>558</ele>
        <time>2022-02-27T15:18:17+01:00</time>
      </trkpt>
      <trkpt lat="43.0315" lon="1.12138">
        <ele>558</ele>
        <time>2022-02-27T15:19:47+01:00</time>
      </trkpt>
      <trkpt lat="43.03146" lon="1.12162">
        <ele>555</ele>
        <time>2022-02-27T15:20:11+01:00</time>
      </trkpt>
      <trkpt lat="43.03142" lon="1.12187">
        <ele>553</ele>
        <time>2022-02-27T15:20:37+01:00</time>
      </trkpt>
      <trkpt lat="43.03142" lon="1.12211">
        <ele>549</ele>
        <time>2022-02-27T15:21:12+01:00</time>
      </trkpt>
      <trkpt lat="43.0313" lon="1.12231">
        <ele>548</ele>
        <time>2022-02-27T15:21:43+01:00</time>
      </trkpt>
      <trkpt lat="43.03124" lon="1.12254">
        <ele>547</ele>
        <time>2022-02-27T15:22:04+01:00</time>
      </trkpt>
      <trkpt lat="43.03121" lon="1.12278">
        <ele>543</ele>
        <time>2022-02-27T15:22:28+01:00</time>
      </trkpt>
      <trkpt lat="43.03132" lon="1.12301">
        <ele>543</ele>
        <time>2022-02-27T15:23:38+01:00</time>
      </trkpt>
      <trkpt lat="43.03147" lon="1.12327">
        <ele>544</ele>
        <time>2022-02-27T15:23:41+01:00</time>
      </trkpt>
      <trkpt lat="43.03161" lon="1.12356">
        <ele>545</ele>
        <time>2022-02-27T15:23:43+01:00</time>
      </trkpt>
      <trkpt lat="43.03175" lon="1.12389">
        <ele>545</ele>
        <time>2022-02-27T15:23:45+01:00</time>
      </trkpt>
      <trkpt lat="43.03186" lon="1.12425">
        <ele>545</ele>
        <time>2022-02-27T15:23:47+01:00</time>
      </trkpt>
      <trkpt lat="43.03196" lon="1.12457">
        <ele>544</ele>
        <time>2022-02-27T15:23:49+01:00</time>
      </trkpt>
      <trkpt lat="43.0318" lon="1.12445">
        <ele>533</ele>
        <time>2022-02-27T15:23:58+01:00</time>
      </trkpt>
      <trkpt lat="43.03167" lon="1.12426">
        <ele>537</ele>
        <time>2022-02-27T15:24:20+01:00</time>
      </trkpt>
      <trkpt lat="43.03173" lon="1.12402">
        <ele>508</ele>
        <time>2022-02-27T15:24:56+01:00</time>
      </trkpt>
      <trkpt lat="43.03189" lon="1.1239">
        <ele>507</ele>
        <time>2022-02-27T15:25:23+01:00</time>
      </trkpt>
      <trkpt lat="43.03205" lon="1.12378">
        <ele>511</ele>
        <time>2022-02-27T15:25:45+01:00</time>
      </trkpt>
      <trkpt lat="43.03222" lon="1.12369">
        <ele>519</ele>
        <time>2022-02-27T15:26:07+01:00</time>
      </trkpt>
      <trkpt lat="43.03241" lon="1.1237">
        <ele>518</ele>
        <time>2022-02-27T15:26:35+01:00</time>
      </trkpt>
      <trkpt lat="43.03259" lon="1.12363">
        <ele>525</ele>
        <time>2022-02-27T15:27:36+01:00</time>
      </trkpt>
      <trkpt lat="43.03277" lon="1.12363">
        <ele>517</ele>
        <time>2022-02-27T15:27:58+01:00</time>
      </trkpt>
      <trkpt lat="43.03296" lon="1.12368">
        <ele>515</ele>
        <time>2022-02-27T15:28:20+01:00</time>
      </trkpt>
      <trkpt lat="43.03313" lon="1.12378">
        <ele>513</ele>
        <time>2022-02-27T15:28:40+01:00</time>
      </trkpt>
      <trkpt lat="43.03329" lon="1.12389">
        <ele>512</ele>
        <time>2022-02-27T15:29:00+01:00</time>
      </trkpt>
      <trkpt lat="43.03345" lon="1.12402">
        <ele>520</ele>
        <time>2022-02-27T15:29:19+01:00</time>
      </trkpt>
      <trkpt lat="43.03361" lon="1.12413">
        <ele>514</ele>
        <time>2022-02-27T15:29:33+01:00</time>
      </trkpt>
      <trkpt lat="43.03379" lon="1.12423">
        <ele>517</ele>
        <time>2022-02-27T15:29:45+01:00</time>
      </trkpt>
      <trkpt lat="43.03396" lon="1.12433">
        <ele>514</ele>
        <time>2022-02-27T15:29:58+01:00</time>
      </trkpt>
      <trkpt lat="43.03413" lon="1.12443">
        <ele>499</ele>
        <time>2022-02-27T15:30:13+01:00</time>
      </trkpt>
      <trkpt lat="43.03431" lon="1.12446">
        <ele>488</ele>
        <time>2022-02-27T15:30:41+01:00</time>
      </trkpt>
      <trkpt lat="43.03442" lon="1.12426">
        <ele>486</ele>
        <time>2022-02-27T15:30:56+01:00</time>
      </trkpt>
      <trkpt lat="43.03452" lon="1.12406">
        <ele>494</ele>
        <time>2022-02-27T15:31:14+01:00</time>
      </trkpt>
      <trkpt lat="43.03467" lon="1.12392">
        <ele>500</ele>
        <time>2022-02-27T15:31:39+01:00</time>
      </trkpt>
      <trkpt lat="43.03483" lon="1.12407">
        <ele>516</ele>
        <time>2022-02-27T15:32:01+01:00</time>
      </trkpt>
      <trkpt lat="43.03495" lon="1.12426">
        <ele>521</ele>
        <time>2022-02-27T15:32:28+01:00</time>
      </trkpt>
      <trkpt lat="43.03512" lon="1.12435">
        <ele>530</ele>
        <time>2022-02-27T15:32:57+01:00</time>
      </trkpt>
      <trkpt lat="43.03531" lon="1.12436">
        <ele>533</ele>
        <time>2022-02-27T15:33:17+01:00</time>
      </trkpt>
      <trkpt lat="43.03547" lon="1.12448">
        <ele>534</ele>
        <time>2022-02-27T15:33:41+01:00</time>
      </trkpt>
      <trkpt lat="43.03561" lon="1.12466">
        <ele>537</ele>
        <time>2022-02-27T15:34:02+01:00</time>
      </trkpt>
      <trkpt lat="43.03567" lon="1.1249">
        <ele>536</ele>
        <time>2022-02-27T15:34:25+01:00</time>
      </trkpt>
      <trkpt lat="43.03585" lon="1.12476">
        <ele>536</ele>
        <time>2022-02-27T15:34:51+01:00</time>
      </trkpt>
      <trkpt lat="43.0362" lon="1.12481">
        <ele>537</ele>
        <time>2022-02-27T15:34:53+01:00</time>
      </trkpt>
      <trkpt lat="43.03616" lon="1.12526">
        <ele>537</ele>
        <time>2022-02-27T15:34:54+01:00</time>
      </trkpt>
      <trkpt lat="43.03634" lon="1.12559">
        <ele>531</ele>
        <time>2022-02-27T15:34:56+01:00</time>
      </trkpt>
      <trkpt lat="43.0365" lon="1.12589">
        <ele>528</ele>
        <time>2022-02-27T15:34:58+01:00</time>
      </trkpt>
      <trkpt lat="43.03658" lon="1.12626">
        <ele>525</ele>
        <time>2022-02-27T15:35:00+01:00</time>
      </trkpt>
      <trkpt lat="43.03628" lon="1.12675">
        <ele>529</ele>
        <time>2022-02-27T15:35:07+01:00</time>
      </trkpt>
      <trkpt lat="43.03613" lon="1.12661">
        <ele>525</ele>
        <time>2022-02-27T15:35:25+01:00</time>
      </trkpt>
      <trkpt lat="43.03616" lon="1.12637">
        <ele>531</ele>
        <time>2022-02-27T15:36:13+01:00</time>
      </trkpt>
      <trkpt lat="43.03632" lon="1.12648">
        <ele>509</ele>
        <time>2022-02-27T15:37:23+01:00</time>
      </trkpt>
      <trkpt lat="43.03645" lon="1.12665">
        <ele>545</ele>
        <time>2022-02-27T15:37:52+01:00</time>
      </trkpt>
      <trkpt lat="43.03658" lon="1.12683">
        <ele>547</ele>
        <time>2022-02-27T15:38:15+01:00</time>
      </trkpt>
      <trkpt lat="43.03673" lon="1.12699">
        <ele>548</ele>
        <time>2022-02-27T15:38:45+01:00</time>
      </trkpt>
      <trkpt lat="43.03686" lon="1.12717">
        <ele>551</ele>
        <time>2022-02-27T15:39:14+01:00</time>
      </trkpt>
      <trkpt lat="43.037" lon="1.12732">
        <ele>552</ele>
        <time>2022-02-27T15:39:37+01:00</time>
      </trkpt>
      <trkpt lat="43.03715" lon="1.12748">
        <ele>551</ele>
        <time>2022-02-27T15:40:47+01:00</time>
      </trkpt>
      <trkpt lat="43.03728" lon="1.12766">
        <ele>550</ele>
        <time>2022-02-27T15:41:09+01:00</time>
      </trkpt>
      <trkpt lat="43.03741" lon="1.12783">
        <ele>550</ele>
        <time>2022-02-27T15:41:28+01:00</time>
      </trkpt>
      <trkpt lat="43.03756" lon="1.12798">
        <ele>550</ele>
        <time>2022-02-27T15:41:53+01:00</time>
      </trkpt>
      <trkpt lat="43.03768" lon="1.12818">
        <ele>550</ele>
        <time>2022-02-27T15:42:10+01:00</time>
      </trkpt>
      <trkpt lat="43.0378" lon="1.12837">
        <ele>547</ele>
        <time>2022-02-27T15:42:32+01:00</time>
      </trkpt>
      <trkpt lat="43.03794" lon="1.12855">
        <ele>545</ele>
        <time>2022-02-27T15:42:51+01:00</time>
      </trkpt>
      <trkpt lat="43.03806" lon="1.12874">
        <ele>544</ele>
        <time>2022-02-27T15:43:11+01:00</time>
      </trkpt>
      <trkpt lat="43.03819" lon="1.12893">
        <ele>549</ele>
        <time>2022-02-27T15:43:25+01:00</time>
      </trkpt>
      <trkpt lat="43.03833" lon="1.1291">
        <ele>556</ele>
        <time>2022-02-27T15:43:38+01:00</time>
      </trkpt>
      <trkpt lat="43.03846" lon="1.12928">
        <ele>558</ele>
        <time>2022-02-27T15:43:52+01:00</time>
      </trkpt>
      <trkpt lat="43.03859" lon="1.12946">
        <ele>565</ele>
        <time>2022-02-27T15:44:04+01:00</time>
      </trkpt>
      <trkpt lat="43.0387" lon="1.12967">
        <ele>567</ele>
        <time>2022-02-27T15:44:24+01:00</time>
      </trkpt>
      <trkpt lat="43.03873" lon="1.12992">
        <ele>557</ele>
        <time>2022-02-27T15:44:53+01:00</time>
      </trkpt>
      <trkpt lat="43.03878" lon="1.13016">
        <ele>553</ele>
        <time>2022-02-27T15:45:16+01:00</time>
      </trkpt>
      <trkpt lat="43.03879" lon="1.13041">
        <ele>555</ele>
        <time>2022-02-27T15:45:32+01:00</time>
      </trkpt>
      <trkpt lat="43.0389" lon="1.13062">
        <ele>553</ele>
        <time>2022-02-27T15:45:58+01:00</time>
      </trkpt>
      <trkpt lat="43.03905" lon="1.13077">
        <ele>555</ele>
        <time>2022-02-27T15:46:13+01:00</time>
      </trkpt>
      <trkpt lat="43.03923" lon="1.13088">
        <ele>561</ele>
        <time>2022-02-27T15:46:27+01:00</time>
      </trkpt>
      <trkpt lat="43.03936" lon="1.13105">
        <ele>557</ele>
        <time>2022-02-27T15:46:53+01:00</time>
      </trkpt>
      <trkpt lat="43.03945" lon="1.13126">
        <ele>556</ele>
        <time>2022-02-27T15:47:20+01:00</time>
      </trkpt>
      <trkpt lat="43.03951" lon="1.1315">
        <ele>557</ele>
        <time>2022-02-27T15:47:47+01:00</time>
      </trkpt>
      <trkpt lat="43.03957" lon="1.13173">
        <ele>560</ele>
        <time>2022-02-27T15:48:10+01:00</time>
      </trkpt>
      <trkpt lat="43.0397" lon="1.13191">
        <ele>563</ele>
        <time>2022-02-27T15:48:35+01:00</time>
      </trkpt>
      <trkpt lat="43.03979" lon="1.13212">
        <ele>563</ele>
        <time>2022-02-27T15:49:13+01:00</time>
      </trkpt>
      <trkpt lat="43.03992" lon="1.13231">
        <ele>565</ele>
        <time>2022-02-27T15:49:44+01:00</time>
      </trkpt>
      <trkpt lat="43.04007" lon="1.13244">
        <ele>568</ele>
        <time>2022-02-27T15:50:05+01:00</time>
      </trkpt>
      <trkpt lat="43.04017" lon="1.13265">
        <ele>572</ele>
        <time>2022-02-27T15:50:52+01:00</time>
      </trkpt>
      <trkpt lat="43.04028" lon="1.13286">
        <ele>576</ele>
        <time>2022-02-27T15:51:13+01:00</time>
      </trkpt>
      <trkpt lat="43.04039" lon="1.13306">
        <ele>580</ele>
        <time>2022-02-27T15:51:37+01:00</time>
      </trkpt>
      <trkpt lat="43.04039" lon="1.13331">
        <ele>573</ele>
        <time>2022-02-27T15:52:27+01:00</time>
      </trkpt>
      <trkpt lat="43.04044" lon="1.13355">
        <ele>574</ele>
        <time>2022-02-27T15:52:50+01:00</time>
      </trkpt>
      <trkpt lat="43.04046" lon="1.1338">
        <ele>578</ele>
        <time>2022-02-27T15:53:15+01:00</time>
      </trkpt>
      <trkpt lat="43.04054" lon="1.13403">
        <ele>584</ele>
        <time>2022-02-27T15:53:36+01:00</time>
      </trkpt>
      <trkpt lat="43.04055" lon="1.13427">
        <ele>585</ele>
        <time>2022-02-27T15:54:02+01:00</time>
      </trkpt>
      <trkpt lat="43.04053" lon="1.13452">
        <ele>589</ele>
        <time>2022-02-27T15:54:29+01:00</time>
      </trkpt>
      <trkpt lat="43.04055" lon="1.13477">
        <ele>574</ele>
        <time>2022-02-27T15:55:01+01:00</time>
      </trkpt>
      <trkpt lat="43.04046" lon="1.13499">
        <ele>554</ele>
        <time>2022-02-27T15:55:24+01:00</time>
      </trkpt>
      <trkpt lat="43.04042" lon="1.13524">
        <ele>554</ele>
        <time>2022-02-27T15:55:50+01:00</time>
      </trkpt>
      <trkpt lat="43.04037" lon="1.13548">
        <ele>606</ele>
        <time>2022-02-27T15:56:13+01:00</time>
      </trkpt>
      <trkpt lat="43.04029" lon="1.1357">
        <ele>550</ele>
        <time>2022-02-27T15:56:38+01:00</time>
      </trkpt>
      <trkpt lat="43.04017" lon="1.13588">
        <ele>575</ele>
        <time>2022-02-27T15:57:03+01:00</time>
      </trkpt>
      <trkpt lat="43.04009" lon="1.13611">
        <ele>613</ele>
        <time>2022-02-27T15:57:25+01:00</time>
      </trkpt>
      <trkpt lat="43.04" lon="1.13633">
        <ele>614</ele>
        <time>2022-02-27T15:57:48+01:00</time>
      </trkpt>
      <trkpt lat="43.03996" lon="1.13658">
        <ele>617</ele>
        <time>2022-02-27T15:58:12+01:00</time>
      </trkpt>
      <trkpt lat="43.03988" lon="1.1368">
        <ele>618</ele>
        <time>2022-02-27T15:58:43+01:00</time>
      </trkpt>
      <trkpt lat="43.0398" lon="1.13703">
        <ele>619</ele>
        <time>2022-02-27T15:59:21+01:00</time>
      </trkpt>
      <trkpt lat="43.03967" lon="1.13721">
        <ele>607</ele>
        <time>2022-02-27T15:59:41+01:00</time>
      </trkpt>
      <trkpt lat="43.03955" lon="1.1374">
        <ele>608</ele>
        <time>2022-02-27T16:00:00+01:00</time>
      </trkpt>
      <trkpt lat="43.03942" lon="1.13757">
        <ele>610</ele>
        <time>2022-02-27T16:00:27+01:00</time>
      </trkpt>
      <trkpt lat="43.03932" lon="1.13777">
        <ele>600</ele>
        <time>2022-02-27T16:01:09+01:00</time>
      </trkpt>
      <trkpt lat="43.0392" lon="1.13797">
        <ele>608</ele>
        <time>2022-02-27T16:02:43+01:00</time>
      </trkpt>
      <trkpt lat="43.03902" lon="1.13793">
        <ele>606</ele>
        <time>2022-02-27T16:02:59+01:00</time>
      </trkpt>
      <trkpt lat="43.03885" lon="1.13784">
        <ele>601</ele>
        <time>2022-02-27T16:03:20+01:00</time>
      </trkpt>
      <trkpt lat="43.03868" lon="1.13776">
        <ele>601</ele>
        <time>2022-02-27T16:03:40+01:00</time>
      </trkpt>
      <trkpt lat="43.03852" lon="1.13763">
        <ele>592</ele>
        <time>2022-02-27T16:04:40+01:00</time>
      </trkpt>
      <trkpt lat="43.03835" lon="1.13751">
        <ele>591</ele>
        <time>2022-02-27T16:05:00+01:00</time>
      </trkpt>
      <trkpt lat="43.03818" lon="1.13741">
        <ele>586</ele>
        <time>2022-02-27T16:05:20+01:00</time>
      </trkpt>
      <trkpt lat="43.03801" lon="1.13729">
        <ele>586</ele>
        <time>2022-02-27T16:05:39+01:00</time>
      </trkpt>
      <trkpt lat="43.03785" lon="1.13717">
        <ele>585</ele>
        <time>2022-02-27T16:05:59+01:00</time>
      </trkpt>
      <trkpt lat="43.03767" lon="1.13706">
        <ele>584</ele>
        <time>2022-02-27T16:06:18+01:00</time>
      </trkpt>
      <trkpt lat="43.0375" lon="1.13697">
        <ele>584</ele>
        <time>2022-02-27T16:06:35+01:00</time>
      </trkpt>
      <trkpt lat="43.03733" lon="1.13686">
        <ele>583</ele>
        <time>2022-02-27T16:06:53+01:00</time>
      </trkpt>
      <trkpt lat="43.03716" lon="1.13677">
        <ele>584</ele>
        <time>2022-02-27T16:07:09+01:00</time>
      </trkpt>
      <trkpt lat="43.03698" lon="1.13671">
        <ele>585</ele>
        <time>2022-02-27T16:07:26+01:00</time>
      </trkpt>
      <trkpt lat="43.0368" lon="1.13665">
        <ele>593</ele>
        <time>2022-02-27T16:07:43+01:00</time>
      </trkpt>
      <trkpt lat="43.03662" lon="1.13661">
        <ele>595</ele>
        <time>2022-02-27T16:08:01+01:00</time>
      </trkpt>
      <trkpt lat="43.03644" lon="1.13657">
        <ele>595</ele>
        <time>2022-02-27T16:08:18+01:00</time>
      </trkpt>
      <trkpt lat="43.03626" lon="1.13654">
        <ele>596</ele>
        <time>2022-02-27T16:08:35+01:00</time>
      </trkpt>
      <trkpt lat="43.03614" lon="1.13635">
        <ele>594</ele>
        <time>2022-02-27T16:08:57+01:00</time>
      </trkpt>
      <trkpt lat="43.03612" lon="1.13611">
        <ele>584</ele>
        <time>2022-02-27T16:09:15+01:00</time>
      </trkpt>
      <trkpt lat="43.03608" lon="1.13587">
        <ele>585</ele>
        <time>2022-02-27T16:09:33+01:00</time>
      </trkpt>
      <trkpt lat="43.0361" lon="1.13561">
        <ele>585</ele>
        <time>2022-02-27T16:09:52+01:00</time>
      </trkpt>
      <trkpt lat="43.03616" lon="1.13537">
        <ele>584</ele>
        <time>2022-02-27T16:10:10+01:00</time>
      </trkpt>
      <trkpt lat="43.03618" lon="1.13512">
        <ele>583</ele>
        <time>2022-02-27T16:10:34+01:00</time>
      </trkpt>
      <trkpt lat="43.03615" lon="1.13487">
        <ele>579</ele>
        <time>2022-02-27T16:10:54+01:00</time>
      </trkpt>
      <trkpt lat="43.03611" lon="1.13462">
        <ele>578</ele>
        <time>2022-02-27T16:11:14+01:00</time>
      </trkpt>
      <trkpt lat="43.03606" lon="1.13439">
        <ele>575</ele>
        <time>2022-02-27T16:11:33+01:00</time>
      </trkpt>
      <trkpt lat="43.03597" lon="1.13416">
        <ele>583</ele>
        <time>2022-02-27T16:11:53+01:00</time>
      </trkpt>
      <trkpt lat="43.0358" lon="1.13408">
        <ele>580</ele>
        <time>2022-02-27T16:12:13+01:00</time>
      </trkpt>
      <trkpt lat="43.03561" lon="1.13405">
        <ele>574</ele>
        <time>2022-02-27T16:12:33+01:00</time>
      </trkpt>
      <trkpt lat="43.03544" lon="1.13396">
        <ele>571</ele>
        <time>2022-02-27T16:12:53+01:00</time>
      </trkpt>
      <trkpt lat="43.03527" lon="1.13385">
        <ele>570</ele>
        <time>2022-02-27T16:13:14+01:00</time>
      </trkpt>
      <trkpt lat="43.03516" lon="1.13365">
        <ele>571</ele>
        <time>2022-02-27T16:13:34+01:00</time>
      </trkpt>
      <trkpt lat="43.03513" lon="1.13341">
        <ele>571</ele>
        <time>2022-02-27T16:13:53+01:00</time>
      </trkpt>
      <trkpt lat="43.03504" lon="1.13319">
        <ele>571</ele>
        <time>2022-02-27T16:14:23+01:00</time>
      </trkpt>
      <trkpt lat="43.03486" lon="1.13312">
        <ele>564</ele>
        <time>2022-02-27T16:14:44+01:00</time>
      </trkpt>
      <trkpt lat="43.03468" lon="1.13309">
        <ele>562</ele>
        <time>2022-02-27T16:15:06+01:00</time>
      </trkpt>
      <trkpt lat="43.0345" lon="1.13306">
        <ele>561</ele>
        <time>2022-02-27T16:15:29+01:00</time>
      </trkpt>
      <trkpt lat="43.03433" lon="1.13296">
        <ele>560</ele>
        <time>2022-02-27T16:15:50+01:00</time>
      </trkpt>
      <trkpt lat="43.03416" lon="1.13289">
        <ele>556</ele>
        <time>2022-02-27T16:16:10+01:00</time>
      </trkpt>
      <trkpt lat="43.03398" lon="1.13282">
        <ele>553</ele>
        <time>2022-02-27T16:16:31+01:00</time>
      </trkpt>
      <trkpt lat="43.0338" lon="1.13275">
        <ele>548</ele>
        <time>2022-02-27T16:16:54+01:00</time>
      </trkpt>
      <trkpt lat="43.03362" lon="1.13268">
        <ele>550</ele>
        <time>2022-02-27T16:17:32+01:00</time>
      </trkpt>
      <trkpt lat="43.03346" lon="1.1328">
        <ele>552</ele>
        <time>2022-02-27T16:17:56+01:00</time>
      </trkpt>
      <trkpt lat="43.0333" lon="1.13294">
        <ele>549</ele>
        <time>2022-02-27T16:18:20+01:00</time>
      </trkpt>
      <trkpt lat="43.03312" lon="1.13297">
        <ele>552</ele>
        <time>2022-02-27T16:18:42+01:00</time>
      </trkpt>
      <trkpt lat="43.03293" lon="1.13294">
        <ele>555</ele>
        <time>2022-02-27T16:19:02+01:00</time>
      </trkpt>
      <trkpt lat="43.03275" lon="1.13296">
        <ele>553</ele>
        <time>2022-02-27T16:19:25+01:00</time>
      </trkpt>
      <trkpt lat="43.03258" lon="1.13286">
        <ele>550</ele>
        <time>2022-02-27T16:19:47+01:00</time>
      </trkpt>
      <trkpt lat="43.0324" lon="1.13278">
        <ele>540</ele>
        <time>2022-02-27T16:20:09+01:00</time>
      </trkpt>
      <trkpt lat="43.03223" lon="1.13271">
        <ele>536</ele>
        <time>2022-02-27T16:20:29+01:00</time>
      </trkpt>
      <trkpt lat="43.03205" lon="1.13262">
        <ele>534</ele>
        <time>2022-02-27T16:20:49+01:00</time>
      </trkpt>
      <trkpt lat="43.03188" lon="1.13255">
        <ele>537</ele>
        <time>2022-02-27T16:21:10+01:00</time>
      </trkpt>
      <trkpt lat="43.0317" lon="1.13246">
        <ele>529</ele>
        <time>2022-02-27T16:21:30+01:00</time>
      </trkpt>
      <trkpt lat="43.03152" lon="1.13239">
        <ele>530</ele>
        <time>2022-02-27T16:21:48+01:00</time>
      </trkpt>
      <trkpt lat="43.03136" lon="1.13227">
        <ele>533</ele>
        <time>2022-02-27T16:22:08+01:00</time>
      </trkpt>
      <trkpt lat="43.03118" lon="1.13218">
        <ele>530</ele>
        <time>2022-02-27T16:22:26+01:00</time>
      </trkpt>
      <trkpt lat="43.03101" lon="1.13212">
        <ele>530</ele>
        <time>2022-02-27T16:22:45+01:00</time>
      </trkpt>
      <trkpt lat="43.03083" lon="1.13204">
        <ele>528</ele>
        <time>2022-02-27T16:23:07+01:00</time>
      </trkpt>
      <trkpt lat="43.03065" lon="1.13198">
        <ele>527</ele>
        <time>2022-02-27T16:23:30+01:00</time>
      </trkpt>
      <trkpt lat="43.03049" lon="1.13188">
        <ele>527</ele>
        <time>2022-02-27T16:23:52+01:00</time>
      </trkpt>
      <trkpt lat="43.03032" lon="1.13176">
        <ele>531</ele>
        <time>2022-02-27T16:24:18+01:00</time>
      </trkpt>
      <trkpt lat="43.03015" lon="1.13169">
        <ele>534</ele>
        <time>2022-02-27T16:24:45+01:00</time>
      </trkpt>
      <trkpt lat="43.02999" lon="1.13157">
        <ele>531</ele>
        <time>2022-02-27T16:25:20+01:00</time>
      </trkpt>
      <trkpt lat="43.02981" lon="1.13151">
        <ele>525</ele>
        <time>2022-02-27T16:25:47+01:00</time>
      </trkpt>
      <trkpt lat="43.02963" lon="1.13144">
        <ele>512</ele>
        <time>2022-02-27T16:26:18+01:00</time>
      </trkpt>
      <trkpt lat="43.02945" lon="1.13139">
        <ele>511</ele>
        <time>2022-02-27T16:26:46+01:00</time>
      </trkpt>
      <trkpt lat="43.02928" lon="1.13132">
        <ele>512</ele>
        <time>2022-02-27T16:27:10+01:00</time>
      </trkpt>
      <trkpt lat="43.02911" lon="1.13141">
        <ele>490</ele>
        <time>2022-02-27T16:27:39+01:00</time>
      </trkpt>
      <trkpt lat="43.02893" lon="1.13149">
        <ele>503</ele>
        <time>2022-02-27T16:28:18+01:00</time>
      </trkpt>
      <trkpt lat="43.02879" lon="1.13133">
        <ele>467</ele>
        <time>2022-02-27T16:28:58+01:00</time>
      </trkpt>
      <trkpt lat="43.02872" lon="1.1311">
        <ele>462</ele>
        <time>2022-02-27T16:29:23+01:00</time>
      </trkpt>
      <trkpt lat="43.02866" lon="1.13086">
        <ele>461</ele>
        <time>2022-02-27T16:29:53+01:00</time>
      </trkpt>
      <trkpt lat="43.02851" lon="1.13074">
        <ele>461</ele>
        <time>2022-02-27T16:30:39+01:00</time>
      </trkpt>
      <trkpt lat="43.02833" lon="1.13071">
        <ele>457</ele>
        <time>2022-02-27T16:31:02+01:00</time>
      </trkpt>
      <trkpt lat="43.02818" lon="1.13057">
        <ele>458</ele>
        <time>2022-02-27T16:31:25+01:00</time>
      </trkpt>
      <trkpt lat="43.02829" lon="1.13037">
        <ele>456</ele>
        <time>2022-02-27T16:31:54+01:00</time>
      </trkpt>
      <trkpt lat="43.02847" lon="1.13031">
        <ele>458</ele>
        <time>2022-02-27T16:32:18+01:00</time>
      </trkpt>
      <trkpt lat="43.0286" lon="1.13015">
        <ele>472</ele>
        <time>2022-02-27T16:32:49+01:00</time>
      </trkpt>
      <trkpt lat="43.02849" lon="1.12994">
        <ele>501</ele>
        <time>2022-02-27T16:33:22+01:00</time>
      </trkpt>
      <trkpt lat="43.02831" lon="1.12992">
        <ele>455</ele>
        <time>2022-02-27T16:33:45+01:00</time>
      </trkpt>
      <trkpt lat="43.02813" lon="1.12987">
        <ele>456</ele>
        <time>2022-02-27T16:34:05+01:00</time>
      </trkpt>
      <trkpt lat="43.02796" lon="1.12978">
        <ele>450</ele>
        <time>2022-02-27T16:34:25+01:00</time>
      </trkpt>
      <trkpt lat="43.02779" lon="1.12969">
        <ele>464</ele>
        <time>2022-02-27T16:34:49+01:00</time>
      </trkpt>
      <trkpt lat="43.02761" lon="1.1296">
        <ele>467</ele>
        <time>2022-02-27T16:35:20+01:00</time>
      </trkpt>
      <trkpt lat="43.02743" lon="1.12953">
        <ele>481</ele>
        <time>2022-02-27T16:35:40+01:00</time>
      </trkpt>
      <trkpt lat="43.02725" lon="1.12948">
        <ele>479</ele>
        <time>2022-02-27T16:35:56+01:00</time>
      </trkpt>
      <trkpt lat="43.0271" lon="1.12932">
        <ele>483</ele>
        <time>2022-02-27T16:36:18+01:00</time>
      </trkpt>
      <trkpt lat="43.02699" lon="1.12912">
        <ele>474</ele>
        <time>2022-02-27T16:36:36+01:00</time>
      </trkpt>
      <trkpt lat="43.02686" lon="1.12894">
        <ele>460</ele>
        <time>2022-02-27T16:36:54+01:00</time>
      </trkpt>
      <trkpt lat="43.02672" lon="1.12878">
        <ele>458</ele>
        <time>2022-02-27T16:37:10+01:00</time>
      </trkpt>
      <trkpt lat="43.02658" lon="1.12863">
        <ele>457</ele>
        <time>2022-02-27T16:37:25+01:00</time>
      </trkpt>
      <trkpt lat="43.02642" lon="1.12849">
        <ele>456</ele>
        <time>2022-02-27T16:37:41+01:00</time>
      </trkpt>
      <trkpt lat="43.02626" lon="1.12837">
        <ele>455</ele>
        <time>2022-02-27T16:37:57+01:00</time>
      </trkpt>
      <trkpt lat="43.02613" lon="1.1282">
        <ele>452</ele>
        <time>2022-02-27T16:38:14+01:00</time>
      </trkpt>
      <trkpt lat="43.02603" lon="1.12797">
        <ele>448</ele>
        <time>2022-02-27T16:38:32+01:00</time>
      </trkpt>
      <trkpt lat="43.0259" lon="1.12779">
        <ele>428</ele>
        <time>2022-02-27T16:38:49+01:00</time>
      </trkpt>
      <trkpt lat="43.02577" lon="1.12761">
        <ele>430</ele>
        <time>2022-02-27T16:39:05+01:00</time>
      </trkpt>
      <trkpt lat="43.02564" lon="1.12743">
        <ele>457</ele>
        <time>2022-02-27T16:39:22+01:00</time>
      </trkpt>
      <trkpt lat="43.02553" lon="1.12724">
        <ele>456</ele>
        <time>2022-02-27T16:39:38+01:00</time>
      </trkpt>
      <trkpt lat="43.0254" lon="1.12705">
        <ele>472</ele>
        <time>2022-02-27T16:39:53+01:00</time>
      </trkpt>
      <trkpt lat="43.0253" lon="1.12684">
        <ele>473</ele>
        <time>2022-02-27T16:40:09+01:00</time>
      </trkpt>
      <trkpt lat="43.02517" lon="1.12665">
        <ele>470</ele>
        <time>2022-02-27T16:40:25+01:00</time>
      </trkpt>
      <trkpt lat="43.02501" lon="1.12655">
        <ele>470</ele>
        <time>2022-02-27T16:40:40+01:00</time>
      </trkpt>
      <trkpt lat="43.02483" lon="1.12648">
        <ele>450</ele>
        <time>2022-02-27T16:40:55+01:00</time>
      </trkpt>
      <trkpt lat="43.02465" lon="1.1264">
        <ele>451</ele>
        <time>2022-02-27T16:41:10+01:00</time>
      </trkpt>
      <trkpt lat="43.02448" lon="1.12631">
        <ele>449</ele>
        <time>2022-02-27T16:41:26+01:00</time>
      </trkpt>
      <trkpt lat="43.02433" lon="1.12615">
        <ele>450</ele>
        <time>2022-02-27T16:41:43+01:00</time>
      </trkpt>
      <trkpt lat="43.02423" lon="1.12595">
        <ele>470</ele>
        <time>2022-02-27T16:41:58+01:00</time>
      </trkpt>
      <trkpt lat="43.02412" lon="1.12573">
        <ele>470</ele>
        <time>2022-02-27T16:42:13+01:00</time>
      </trkpt>
      <trkpt lat="43.02401" lon="1.12554">
        <ele>471</ele>
        <time>2022-02-27T16:42:28+01:00</time>
      </trkpt>
      <trkpt lat="43.02389" lon="1.12535">
        <ele>469</ele>
        <time>2022-02-27T16:42:43+01:00</time>
      </trkpt>
      <trkpt lat="43.02378" lon="1.12515">
        <ele>469</ele>
        <time>2022-02-27T16:42:59+01:00</time>
      </trkpt>
      <trkpt lat="43.02363" lon="1.12499">
        <ele>469</ele>
        <time>2022-02-27T16:43:16+01:00</time>
      </trkpt>
      <trkpt lat="43.02345" lon="1.1249">
        <ele>470</ele>
        <time>2022-02-27T16:43:32+01:00</time>
      </trkpt>
      <trkpt lat="43.02327" lon="1.12483">
        <ele>470</ele>
        <time>2022-02-27T16:43:47+01:00</time>
      </trkpt>
      <trkpt lat="43.0231" lon="1.12473">
        <ele>469</ele>
        <time>2022-02-27T16:44:03+01:00</time>
      </trkpt>
      <trkpt lat="43.02293" lon="1.12462">
        <ele>468</ele>
        <time>2022-02-27T16:44:19+01:00</time>
      </trkpt>
      <trkpt lat="43.02276" lon="1.12452">
        <ele>468</ele>
        <time>2022-02-27T16:44:34+01:00</time>
      </trkpt>
      <trkpt lat="43.02259" lon="1.12441">
        <ele>469</ele>
        <time>2022-02-27T16:44:51+01:00</time>
      </trkpt>
      <trkpt lat="43.02242" lon="1.1243">
        <ele>469</ele>
        <time>2022-02-27T16:45:07+01:00</time>
      </trkpt>
      <trkpt lat="43.02227" lon="1.12418">
        <ele>469</ele>
        <time>2022-02-27T16:45:22+01:00</time>
      </trkpt>
      <trkpt lat="43.02211" lon="1.12405">
        <ele>481</ele>
        <time>2022-02-27T16:45:38+01:00</time>
      </trkpt>
      <trkpt lat="43.02206" lon="1.12381">
        <ele>469</ele>
        <time>2022-02-27T16:45:56+01:00</time>
      </trkpt>
      <trkpt lat="43.02207" lon="1.12356">
        <ele>448</ele>
        <time>2022-02-27T16:46:12+01:00</time>
      </trkpt>
      <trkpt lat="43.02211" lon="1.12332">
        <ele>468</ele>
        <time>2022-02-27T16:46:28+01:00</time>
      </trkpt>
      <trkpt lat="43.02218" lon="1.12308">
        <ele>469</ele>
        <time>2022-02-27T16:46:45+01:00</time>
      </trkpt>
      <trkpt lat="43.02226" lon="1.12285">
        <ele>469</ele>
        <time>2022-02-27T16:47:00+01:00</time>
      </trkpt>
      <trkpt lat="43.02236" lon="1.12263">
        <ele>469</ele>
        <time>2022-02-27T16:47:16+01:00</time>
      </trkpt>
      <trkpt lat="43.02244" lon="1.12241">
        <ele>469</ele>
        <time>2022-02-27T16:47:31+01:00</time>
      </trkpt>
      <trkpt lat="43.02255" lon="1.1222">
        <ele>469</ele>
        <time>2022-02-27T16:47:47+01:00</time>
      </trkpt>
      <trkpt lat="43.02264" lon="1.12199">
        <ele>468</ele>
        <time>2022-02-27T16:48:03+01:00</time>
      </trkpt>
      <trkpt lat="43.02273" lon="1.12177">
        <ele>449</ele>
        <time>2022-02-27T16:48:19+01:00</time>
      </trkpt>
      <trkpt lat="43.02282" lon="1.12155">
        <ele>468</ele>
        <time>2022-02-27T16:48:35+01:00</time>
      </trkpt>
      <trkpt lat="43.02291" lon="1.12132">
        <ele>447</ele>
        <time>2022-02-27T16:48:51+01:00</time>
      </trkpt>
      <trkpt lat="43.02301" lon="1.1211">
        <ele>467</ele>
        <time>2022-02-27T16:49:08+01:00</time>
      </trkpt>
      <trkpt lat="43.02311" lon="1.1209">
        <ele>467</ele>
        <time>2022-02-27T16:49:24+01:00</time>
      </trkpt>
      <trkpt lat="43.02321" lon="1.12069">
        <ele>467</ele>
        <time>2022-02-27T16:49:40+01:00</time>
      </trkpt>
      <trkpt lat="43.0233" lon="1.12046">
        <ele>466</ele>
        <time>2022-02-27T16:49:57+01:00</time>
      </trkpt>
      <trkpt lat="43.02336" lon="1.12022">
        <ele>467</ele>
        <time>2022-02-27T16:50:13+01:00</time>
      </trkpt>
      <trkpt lat="43.02341" lon="1.11997">
        <ele>467</ele>
        <time>2022-02-27T16:50:30+01:00</time>
      </trkpt>
      <trkpt lat="43.02347" lon="1.11974">
        <ele>467</ele>
        <time>2022-02-27T16:50:46+01:00</time>
      </trkpt>
      <trkpt lat="43.02353" lon="1.11949">
        <ele>467</ele>
        <time>2022-02-27T16:51:03+01:00</time>
      </trkpt>
      <trkpt lat="43.02359" lon="1.11926">
        <ele>467</ele>
        <time>2022-02-27T16:51:19+01:00</time>
      </trkpt>
      <trkpt lat="43.02365" lon="1.11901">
        <ele>467</ele>
        <time>2022-02-27T16:51:36+01:00</time>
      </trkpt>
      <trkpt lat="43.02371" lon="1.11878">
        <ele>466</ele>
        <time>2022-02-27T16:51:52+01:00</time>
      </trkpt>
      <trkpt lat="43.02377" lon="1.11854">
        <ele>467</ele>
        <time>2022-02-27T16:52:08+01:00</time>
      </trkpt>
      <trkpt lat="43.02387" lon="1.11833">
        <ele>467</ele>
        <time>2022-02-27T16:52:24+01:00</time>
      </trkpt>
      <trkpt lat="43.024" lon="1.11814">
        <ele>467</ele>
        <time>2022-02-27T16:52:39+01:00</time>
      </trkpt>
      <trkpt lat="43.02414" lon="1.11798">
        <ele>467</ele>
        <time>2022-02-27T16:52:55+01:00</time>
      </trkpt>
      <trkpt lat="43.02428" lon="1.1178">
        <ele>467</ele>
        <time>2022-02-27T16:53:11+01:00</time>
      </trkpt>
      <trkpt lat="43.02442" lon="1.11765">
        <ele>466</ele>
        <time>2022-02-27T16:53:27+01:00</time>
      </trkpt>
      <trkpt lat="43.02457" lon="1.11752">
        <ele>467</ele>
        <time>2022-02-27T16:53:43+01:00</time>
      </trkpt>
      <trkpt lat="43.02473" lon="1.11738">
        <ele>446</ele>
        <time>2022-02-27T16:53:59+01:00</time>
      </trkpt>
      <trkpt lat="43.02471" lon="1.11714">
        <ele>446</ele>
        <time>2022-02-27T16:54:18+01:00</time>
      </trkpt>
      <trkpt lat="43.02456" lon="1.117">
        <ele>466</ele>
        <time>2022-02-27T16:54:36+01:00</time>
      </trkpt>
      <trkpt lat="43.02446" lon="1.11678">
        <ele>467</ele>
        <time>2022-02-27T16:54:53+01:00</time>
      </trkpt>
      <trkpt lat="43.0244" lon="1.11653">
        <ele>478</ele>
        <time>2022-02-27T16:55:10+01:00</time>
      </trkpt>
      <trkpt lat="43.02441" lon="1.11627">
        <ele>446</ele>
        <time>2022-02-27T16:55:25+01:00</time>
      </trkpt>
      <trkpt lat="43.02427" lon="1.1161">
        <ele>445</ele>
        <time>2022-02-27T16:55:42+01:00</time>
      </trkpt>
      <trkpt lat="43.0241" lon="1.116">
        <ele>464</ele>
        <time>2022-02-27T16:56:00+01:00</time>
      </trkpt>
      <trkpt lat="43.02393" lon="1.11591">
        <ele>463</ele>
        <time>2022-02-27T16:56:16+01:00</time>
      </trkpt>
      <trkpt lat="43.02381" lon="1.11571">
        <ele>466</ele>
        <time>2022-02-27T16:56:35+01:00</time>
      </trkpt>
      <trkpt lat="43.02393" lon="1.11551">
        <ele>466</ele>
        <time>2022-02-27T16:56:53+01:00</time>
      </trkpt>
      <trkpt lat="43.02407" lon="1.11536">
        <ele>467</ele>
        <time>2022-02-27T16:57:09+01:00</time>
      </trkpt>
      <trkpt lat="43.02424" lon="1.11525">
        <ele>465</ele>
        <time>2022-02-27T16:57:27+01:00</time>
      </trkpt>
      <trkpt lat="43.02441" lon="1.11513">
        <ele>463</ele>
        <time>2022-02-27T16:57:44+01:00</time>
      </trkpt>
      <trkpt lat="43.02457" lon="1.11501">
        <ele>464</ele>
        <time>2022-02-27T16:58:01+01:00</time>
      </trkpt>
      <trkpt lat="43.02474" lon="1.11489">
        <ele>462</ele>
        <time>2022-02-27T16:58:18+01:00</time>
      </trkpt>
      <trkpt lat="43.0249" lon="1.11476">
        <ele>464</ele>
        <time>2022-02-27T16:58:33+01:00</time>
      </trkpt>
      <trkpt lat="43.02505" lon="1.11461">
        <ele>465</ele>
        <time>2022-02-27T16:58:49+01:00</time>
      </trkpt>
      <trkpt lat="43.02521" lon="1.11449">
        <ele>465</ele>
        <time>2022-02-27T16:59:04+01:00</time>
      </trkpt>
      <trkpt lat="43.02536" lon="1.11433">
        <ele>445</ele>
        <time>2022-02-27T16:59:20+01:00</time>
      </trkpt>
      <trkpt lat="43.02551" lon="1.11419">
        <ele>446</ele>
        <time>2022-02-27T16:59:36+01:00</time>
      </trkpt>
      <trkpt lat="43.02566" lon="1.11406">
        <ele>445</ele>
        <time>2022-02-27T16:59:53+01:00</time>
      </trkpt>
      <trkpt lat="43.02582" lon="1.11393">
        <ele>466</ele>
        <time>2022-02-27T17:00:09+01:00</time>
      </trkpt>
      <trkpt lat="43.026" lon="1.11389">
        <ele>464</ele>
        <time>2022-02-27T17:00:26+01:00</time>
      </trkpt>
      <trkpt lat="43.02617" lon="1.1138">
        <ele>465</ele>
        <time>2022-02-27T17:00:42+01:00</time>
      </trkpt>
      <trkpt lat="43.02634" lon="1.11372">
        <ele>445</ele>
        <time>2022-02-27T17:00:59+01:00</time>
      </trkpt>
      <trkpt lat="43.02652" lon="1.11363">
        <ele>444</ele>
        <time>2022-02-27T17:01:17+01:00</time>
      </trkpt>
      <trkpt lat="43.0267" lon="1.11353">
        <ele>462</ele>
        <time>2022-02-27T17:01:33+01:00</time>
      </trkpt>
    </trkseg>
  </trk>
</gpx>